Time;durP1;ratioP1;P1;durP2;ratioP2;P2;SDS_P1;SDS_P2;PMS_P1;PMS_P2;Temp;Humidity;BMP_temperature;BMP_pressure;BME280_temperature;BME280_humidity;BME280_pressure;Samples;Min_cycle;Max_cycle;Signal;HPM_P1;HPM_P2
2021/01/09 00:01:53;;;;;;;18.60;11.38;;;;;;;1.37;85.33;101743.66;10124157;28;20081;-75
2021/01/09 00:06:50;;;;;;;21.88;12.73;;;;;;;1.25;85.93;101734.72;10103635;28;20145;-75
2021/01/09 00:11:49;;;;;;;22.85;12.48;;;;;;;1.14;86.13;101743.56;10122785;28;20059;-75
2021/01/09 00:16:49;;;;;;;20.90;13.13;;;;;;;1.19;86.41;101746.44;10114434;28;20057;-74
2021/01/09 00:21:46;;;;;;;19.23;11.13;;;;;;;1.19;86.25;101741.03;10113753;28;21390;-75
2021/01/09 00:26:44;;;;;;;19.90;12.00;;;;;;;1.10;86.25;101753.19;10103544;28;20093;-75
2021/01/09 00:31:43;;;;;;;25.45;14.95;;;;;;;1.12;86.51;101745.69;10125273;28;20054;-75
2021/01/09 00:36:52;;;;;;;19.60;12.52;;;;;;;0.96;86.98;101747.97;10102732;28;20074;-74
2021/01/09 00:41:52;;;;;;;22.75;13.32;;;;;;;1.09;86.27;101773.06;10110583;28;20491;-74
2021/01/09 00:46:48;;;;;;;22.63;14.43;;;;;;;1.09;86.32;101763.16;10120998;28;20072;-75
2021/01/09 00:51:48;;;;;;;18.55;10.43;;;;;;;1.04;86.60;101776.44;10113247;28;20073;-74
2021/01/09 00:56:45;;;;;;;19.80;11.88;;;;;;;1.01;86.00;101766.97;10111349;28;20073;-72
2021/01/09 01:01:52;;;;;;;17.55;9.93;;;;;;;1.11;86.26;101762.91;10109571;28;20126;-73
2021/01/09 01:06:57;;;;;;;19.23;11.63;;;;;;;0.92;86.44;101765.63;10126222;28;20125;-74
2021/01/09 01:12:03;;;;;;;17.52;9.68;;;;;;;0.96;86.29;101779.47;10104165;28;20053;-74
2021/01/09 01:17:10;;;;;;;20.00;12.55;;;;;;;0.99;86.59;101785.22;10107702;28;20050;-73
2021/01/09 01:22:08;;;;;;;19.95;11.25;;;;;;;0.95;86.80;101794.81;10115796;28;20061;-74
2021/01/09 01:27:08;;;;;;;18.77;11.30;;;;;;;1.12;86.42;101794.19;10102344;28;20061;-73
2021/01/09 01:32:05;;;;;;;21.02;12.05;;;;;;;0.96;86.70;101793.75;10088389;28;20082;-73
2021/01/09 01:37:06;;;;;;;17.17;11.38;;;;;;;1.15;86.29;101799.09;10108959;28;20052;-75
2021/01/09 01:42:26;;;;;;;20.33;12.27;;;;;;;1.17;86.03;101791.63;10088266;28;20050;-75
2021/01/09 01:47:29;;;;;;;18.10;11.50;;;;;;;1.09;85.97;101791.94;10109810;28;20055;-75
2021/01/09 01:52:27;;;;;;;20.75;11.57;;;;;;;1.12;86.13;101805.78;10093807;28;20046;-74
2021/01/09 01:57:35;;;;;;;21.10;12.40;;;;;;;1.24;86.15;101812.03;10104439;28;20094;-75
2021/01/09 02:02:33;;;;;;;18.52;11.45;;;;;;;1.19;85.65;101805.69;10095550;28;20051;-74
2021/01/09 02:07:36;;;;;;;16.38;10.45;;;;;;;1.13;85.80;101809.28;10103411;28;20047;-75
2021/01/09 02:12:42;;;;;;;;;;;;;;;1.23;85.67;101812.25;10115437;28;20046;-75
2021/01/09 02:17:40;;;;;;;15.80;10.43;;;;;;;1.19;85.39;101811.91;10097696;28;19964;-75
2021/01/09 02:22:44;;;;;;;17.55;10.75;;;;;;;1.18;85.63;101815.63;10098394;28;20058;-75
2021/01/09 02:27:46;;;;;;;17.60;9.80;;;;;;;1.16;85.50;101816.91;10094784;28;20452;-74
2021/01/09 02:33:02;;;;;;;17.63;11.52;;;;;;;1.21;85.75;101803.59;10088991;28;20515;-74
2021/01/09 02:38:02;;;;;;;16.02;10.68;;;;;;;1.34;85.47;101811.47;10083191;28;20058;-74
2021/01/09 02:42:59;;;;;;;17.02;10.85;;;;;;;1.20;85.55;101808.13;10094906;28;20530;-75
2021/01/09 02:47:56;;;;;;;17.98;10.82;;;;;;;1.25;84.81;101824.47;10099136;28;20086;-74
2021/01/09 02:52:52;;;;;;;18.88;11.75;;;;;;;1.19;85.45;101821.84;10101951;28;20081;-75
2021/01/09 02:57:50;;;;;;;17.63;11.60;;;;;;;1.37;85.19;101827.19;10098524;28;20047;-74
2021/01/09 03:02:47;;;;;;;18.20;10.75;;;;;;;1.39;84.74;101830.50;10129391;28;20130;-75
2021/01/09 03:07:44;;;;;;;17.55;10.80;;;;;;;1.30;84.99;101833.72;10130760;28;20053;-75
2021/01/09 03:12:41;;;;;;;19.85;11.85;;;;;;;1.26;84.95;101836.88;10114887;28;20047;-75
2021/01/09 03:17:38;;;;;;;19.85;10.65;;;;;;;1.21;85.06;101846.69;10121826;28;20133;-76
2021/01/09 03:22:34;;;;;;;21.95;12.88;;;;;;;1.31;85.19;101851.53;10103695;28;20423;-75
2021/01/09 03:27:31;;;;;;;21.83;12.20;;;;;;;1.45;85.01;101853.81;10101176;28;20247;-74
2021/01/09 03:32:28;;;;;;;18.00;11.40;;;;;;;1.30;85.14;101856.13;10134372;28;20054;-74
2021/01/09 03:37:24;;;;;;;19.20;11.25;;;;;;;1.37;84.85;101856.84;10109710;28;20061;-75
2021/01/09 03:42:21;;;;;;;19.02;12.05;;;;;;;1.29;85.07;101854.44;10117636;28;20436;-74
2021/01/09 03:47:17;;;;;;;20.83;12.90;;;;;;;1.23;85.00;101855.34;10117875;28;20106;-75
2021/01/09 03:52:16;;;;;;;20.17;12.15;;;;;;;1.37;84.54;101851.44;10120268;28;20566;-74
2021/01/09 03:57:18;;;;;;;17.83;11.32;;;;;;;1.35;84.75;101853.56;10095178;28;20050;-75
2021/01/09 04:02:20;;;;;;;18.73;10.60;;;;;;;1.26;84.71;101871.91;10106780;28;20411;-75
2021/01/09 04:07:17;;;;;;;18.30;11.23;;;;;;;1.23;84.77;101860.75;10106331;28;20519;-75
2021/01/09 04:12:19;;;;;;;17.55;10.15;;;;;;;1.15;84.71;101863.75;10118715;28;20105;-75
2021/01/09 04:17:22;;;;;;;18.73;11.45;;;;;;;1.18;84.41;101874.06;10104360;28;20068;-75
2021/01/09 04:22:23;;;;;;;16.30;9.38;;;;;;;1.22;84.84;101876.09;10127175;28;20554;-74
2021/01/09 04:27:20;;;;;;;17.42;11.13;;;;;;;1.24;84.48;101873.19;10109320;28;20053;-75
2021/01/09 04:32:20;;;;;;;18.83;11.95;;;;;;;1.38;84.52;101893.50;10107952;28;20050;-75
2021/01/09 04:37:18;;;;;;;17.10;10.52;;;;;;;1.32;84.48;101886.31;10128287;28;20073;-74
2021/01/09 04:42:15;;;;;;;19.05;11.43;;;;;;;1.37;84.39;101904.50;10112018;28;20134;-74
2021/01/09 04:47:18;;;;;;;20.52;12.75;;;;;;;1.30;84.15;101910.00;10103302;28;20051;-75
2021/01/09 04:52:16;;;;;;;17.52;11.40;;;;;;;1.42;84.01;101912.75;10108147;28;20120;-75
2021/01/09 04:57:23;;;;;;;16.25;11.23;;;;;;;1.43;84.02;101920.59;10123462;28;20444;-75
2021/01/09 05:02:20;;;;;;;19.85;11.68;;;;;;;1.41;83.65;101917.28;10120263;28;20050;-74
2021/01/09 05:07:18;;;;;;;21.10;13.10;;;;;;;1.34;84.13;101916.56;10119336;28;20061;-75
2021/01/09 05:12:17;;;;;;;20.33;12.88;;;;;;;1.44;84.15;101927.66;10116210;28;20050;-74
2021/01/09 05:17:14;;;;;;;18.42;11.90;;;;;;;1.38;84.17;101928.53;10095618;28;20483;-75
2021/01/09 05:22:11;;;;;;;19.50;11.95;;;;;;;1.34;84.49;101937.31;10118340;28;20070;-75
2021/01/09 05:27:09;;;;;;;21.85;12.48;;;;;;;1.33;84.33;101941.88;10123911;28;20165;-75
2021/01/09 05:32:11;;;;;;;19.63;10.45;;;;;;;1.25;84.45;101950.25;10112198;28;20053;-75
2021/01/09 05:37:20;;;;;;;16.92;10.73;;;;;;;1.15;84.36;101955.34;10124122;28;20046;-75
2021/01/09 05:42:23;;;;;;;18.10;10.85;;;;;;;1.05;84.71;101956.69;10111807;28;20046;-75
2021/01/09 05:47:22;;;;;;;19.15;11.85;;;;;;;1.20;84.58;101968.97;10106698;28;20176;-75
2021/01/09 05:52:22;;;;;;;19.85;12.20;;;;;;;1.04;84.90;101965.00;10098215;28;20074;-75
2021/01/09 05:57:20;;;;;;;19.80;12.05;;;;;;;0.97;84.93;101967.75;10088536;28;20054;-75
2021/01/09 06:02:17;;;;;;;17.60;11.25;;;;;;;1.04;85.08;101968.53;10112064;28;20074;-77
2021/01/09 06:07:25;;;;;;;23.70;12.80;;;;;;;1.10;84.98;101968.69;10107063;28;20452;-77
2021/01/09 06:12:22;;;;;;;18.80;12.25;;;;;;;1.16;84.91;101983.94;10119877;28;20054;-76
2021/01/09 06:17:25;;;;;;;18.58;11.27;;;;;;;1.16;84.73;101981.22;10117563;28;20054;-75
2021/01/09 06:22:22;;;;;;;20.58;12.52;;;;;;;1.18;84.16;101982.66;10096794;28;20043;-76
2021/01/09 06:27:30;;;;;;;21.02;11.15;;;;;;;1.11;84.26;101997.25;10108771;28;20055;-77
2021/01/09 06:32:32;;;;;;;20.05;12.05;;;;;;;0.80;84.86;102001.69;10108736;28;20071;-76
2021/01/09 06:37:30;;;;;;;26.23;13.23;;;;;;;0.91;84.63;102006.38;10121817;28;20052;-76
2021/01/09 06:42:37;;;;;;;22.42;13.13;;;;;;;0.80;84.72;102007.09;10102982;28;20039;-76
2021/01/09 06:47:34;;;;;;;20.92;12.70;;;;;;;1.04;84.35;102008.09;10113048;28;20102;-76
2021/01/09 06:52:53;;;;;;;21.52;13.05;;;;;;;1.02;84.82;102016.41;10116016;28;20050;-76
2021/01/09 06:57:57;;;;;;;21.27;12.38;;;;;;;1.11;84.09;102024.19;10113503;28;20495;-76
2021/01/09 07:03:13;;;;;;;23.02;13.60;;;;;;;0.79;84.70;102033.19;10111828;28;20049;-76
2021/01/09 07:08:17;;;;;;;19.88;12.02;;;;;;;0.99;84.42;102033.00;10094555;28;20098;-77
2021/01/09 07:13:17;;;;;;;22.55;12.80;;;;;;;0.99;84.33;102038.38;10115020;28;20043;-77
2021/01/09 07:18:20;;;;;;;20.08;12.25;;;;;;;0.84;84.59;102046.00;10109895;28;20569;-76
2021/01/09 07:23:21;;;;;;;19.73;11.35;;;;;;;0.93;84.21;102039.28;10111021;28;20110;-77
2021/01/09 07:28:24;;;;;;;25.80;14.35;;;;;;;0.75;84.42;102048.13;10116304;28;20518;-80
2021/01/09 07:33:27;;;;;;;20.95;12.40;;;;;;;0.82;85.05;102056.16;10097622;28;20050;-79
2021/01/09 07:38:32;;;;;;;20.87;11.53;;;;;;;0.67;84.85;102066.41;10092551;28;20057;-77
2021/01/09 07:43:41;;;;;;;23.08;13.45;;;;;;;0.81;84.46;102067.94;10103540;28;20050;-76
2021/01/09 07:48:40;;;;;;;19.33;12.20;;;;;;;0.80;85.01;102077.09;10101820;28;20415;-76
2021/01/09 07:53:48;;;;;;;21.65;11.40;;;;;;;0.76;84.95;102071.31;10120883;28;20074;-76
2021/01/09 07:58:46;;;;;;;20.10;10.95;;;;;;;0.79;84.52;102056.56;10088213;28;20431;-75
2021/01/09 08:03:45;;;;;;;20.45;11.57;;;;;;;0.98;84.19;102063.69;10122053;28;20102;-74
2021/01/09 08:08:50;;;;;;;23.33;12.40;;;;;;;1.10;84.44;102068.34;10129017;28;20049;-75
2021/01/09 08:13:46;;;;;;;19.63;11.77;;;;;;;1.18;83.65;102081.53;10110530;28;20081;-74
2021/01/09 08:18:46;;;;;;;20.08;12.55;;;;;;;0.94;83.76;102083.19;10111502;28;20121;-74
2021/01/09 08:23:54;;;;;;;20.23;11.50;;;;;;;1.09;83.91;102088.22;10090662;28;20042;-75
2021/01/09 08:28:57;;;;;;;19.13;10.70;;;;;;;1.22;83.72;102096.19;10099243;28;20117;-75
2021/01/09 08:33:59;;;;;;;20.80;12.30;;;;;;;1.31;83.55;102100.25;10085602;28;20054;-74
2021/01/09 08:38:59;;;;;;;20.17;11.93;;;;;;;1.30;83.75;102104.03;10099301;28;20062;-76
2021/01/09 08:44:13;;;;;;;24.27;13.10;;;;;;;1.14;84.19;102109.94;10100399;28;20118;-76
2021/01/09 08:49:27;;;;;;;22.02;12.15;;;;;;;1.16;84.11;102113.25;10108739;28;20074;-76
2021/01/09 08:54:28;;;;;;;24.73;14.07;;;;;;;1.09;83.58;102117.88;10091360;28;20057;-72
2021/01/09 08:59:26;;;;;;;20.63;10.70;;;;;;;1.18;83.79;102121.94;10115484;28;20044;-76
2021/01/09 09:04:25;;;;;;;25.23;13.48;;;;;;;1.29;83.57;102132.00;10121303;28;20042;-77
2021/01/09 09:09:24;;;;;;;21.83;12.85;;;;;;;1.09;83.74;102139.41;10110412;28;20399;-77
2021/01/09 09:14:22;;;;;;;26.35;13.52;;;;;;;1.21;83.96;102138.50;10104854;28;20051;-78
2021/01/09 09:19:22;;;;;;;25.70;13.20;;;;;;;1.11;84.08;102142.72;10101869;28;20141;-78
2021/01/09 09:24:43;;;;;;;23.38;13.23;;;;;;;1.18;83.97;102144.31;10117433;28;20047;-78
2021/01/09 09:29:43;;;;;;;23.95;13.07;;;;;;;1.20;83.61;102146.78;10118779;28;20458;-84
2021/01/09 09:34:42;;;;;;;24.48;13.98;;;;;;;1.24;83.68;102153.41;10109086;28;20092;-79
2021/01/09 09:39:39;;;;;;;23.67;12.27;;;;;;;1.34;83.36;102159.09;10095928;28;20060;-75
2021/01/09 09:44:43;;;;;;;21.92;13.25;;;;;;;1.46;83.48;102151.97;10106479;28;20118;-76
2021/01/09 09:49:43;;;;;;;20.75;12.30;;;;;;;1.45;83.32;102161.06;10113295;28;20085;-76
2021/01/09 09:54:41;;;;;;;19.85;12.30;;;;;;;1.35;83.07;102149.16;10107616;28;20055;-75
2021/01/09 09:59:38;;;;;;;21.88;11.95;;;;;;;1.26;83.24;102152.13;10103604;28;20054;-74
2021/01/09 10:04:44;;;;;;;22.63;13.00;;;;;;;1.35;83.04;102144.59;10091654;28;20047;-76
2021/01/09 10:09:51;;;;;;;21.77;12.98;;;;;;;1.46;83.21;102151.97;10105087;28;20054;-75
2021/01/09 10:14:48;;;;;;;22.50;12.60;;;;;;;1.36;83.21;102157.00;10114427;28;20051;-77
2021/01/09 10:19:45;;;;;;;20.52;10.90;;;;;;;1.53;83.13;102161.84;10095987;28;20051;-76
2021/01/09 10:24:42;;;;;;;21.20;11.05;;;;;;;1.26;83.52;102162.09;10111582;28;20105;-77
2021/01/09 10:29:40;;;;;;;22.75;12.10;;;;;;;1.21;83.54;102170.00;10108563;28;20515;-75
2021/01/09 10:34:36;;;;;;;21.70;12.38;;;;;;;1.02;84.58;102171.78;10080397;28;20054;-75
2021/01/09 10:39:33;;;;;;;22.55;11.52;;;;;;;1.08;84.05;102172.78;10084806;28;20047;-76
2021/01/09 10:44:31;;;;;;;22.42;11.55;;;;;;;1.20;84.20;102162.94;10091616;28;20396;-76
2021/01/09 10:49:28;;;;;;;23.33;12.55;;;;;;;1.27;83.60;102174.50;10105627;28;20455;-76
2021/01/09 10:54:29;;;;;;;21.55;13.05;;;;;;;1.11;83.80;102172.34;10082218;28;20046;-76
2021/01/09 10:59:25;;;;;;;25.83;13.75;;;;;;;1.16;84.20;102172.50;10105436;28;20069;-75
2021/01/09 11:04:23;;;;;;;22.95;10.95;;;;;;;1.25;83.61;102171.19;10108430;28;20165;-75
2021/01/09 11:09:20;;;;;;;21.77;12.48;;;;;;;1.25;83.97;102165.81;10085152;28;20117;-75
2021/01/09 11:14:17;;;;;;;25.77;13.55;;;;;;;1.15;84.31;102166.31;10100866;28;20046;-74
2021/01/09 11:19:14;;;;;;;27.75;11.73;;;;;;;1.03;84.71;102171.56;10111542;28;20126;-73
2021/01/09 11:24:11;;;;;;;21.48;11.55;;;;;;;1.00;84.87;102169.34;10115458;28;20046;-74
2021/01/09 11:29:07;;;;;;;24.60;13.50;;;;;;;1.19;84.26;102161.31;10116890;28;20078;-72
2021/01/09 11:34:04;;;;;;;27.25;12.70;;;;;;;1.39;84.18;102155.75;10100501;28;20046;-73
2021/01/09 11:39:00;;;;;;;25.80;13.10;;;;;;;1.35;84.16;102158.06;10105768;28;20042;-74
2021/01/09 11:43:56;;;;;;;28.02;14.38;;;;;;;1.16;83.98;102156.34;10116032;28;20050;-74
2021/01/09 11:48:57;;;;;;;25.73;13.45;;;;;;;1.20;84.11;102173.72;10124125;28;20046;-72
2021/01/09 11:53:54;;;;;;;24.75;12.70;;;;;;;1.21;84.02;102175.41;10119978;28;20054;-73
2021/01/09 11:58:52;;;;;;;26.00;13.98;;;;;;;1.17;84.27;102174.19;10095803;28;20046;-72
2021/01/09 12:03:48;;;;;;;27.02;14.32;;;;;;;1.38;83.68;102171.09;10102401;28;20129;-74
2021/01/09 12:08:45;;;;;;;22.27;12.73;;;;;;;1.49;83.67;102171.44;10103022;28;20086;-75
2021/01/09 12:13:42;;;;;;;23.35;12.82;;;;;;;1.62;82.91;102179.38;10105071;28;20058;-75
2021/01/09 12:18:41;;;;;;;22.52;12.75;;;;;;;1.64;83.02;102169.19;10111108;28;20057;-75
2021/01/09 12:23:39;;;;;;;22.02;11.43;;;;;;;1.77;81.87;102169.06;10110024;28;20102;-74
2021/01/09 12:28:36;;;;;;;25.60;11.55;;;;;;;1.57;82.35;102160.34;10109932;28;20062;-75
2021/01/09 12:33:34;;;;;;;21.63;12.95;;;;;;;1.55;82.47;102165.13;10111840;28;20058;-74
2021/01/09 12:38:31;;;;;;;20.48;12.52;;;;;;;1.72;82.34;102170.78;10120418;28;20506;-75
2021/01/09 12:43:28;;;;;;;18.90;9.45;;;;;;;1.74;81.65;102171.38;10106691;28;20147;-74
2021/01/09 12:48:25;;;;;;;22.73;12.73;;;;;;;1.92;81.97;102175.97;10104685;28;20051;-74
2021/01/09 12:53:21;;;;;;;21.42;12.18;;;;;;;1.99;81.04;102174.03;10093281;28;20590;-74
2021/01/09 12:58:18;;;;;;;24.27;12.25;;;;;;;1.97;81.06;102168.03;10105854;28;20055;-74
2021/01/09 13:03:15;;;;;;;20.33;12.45;;;;;;;1.91;81.06;102174.34;10106617;28;20051;-75
2021/01/09 13:08:12;;;;;;;20.85;11.27;;;;;;;2.07;81.08;102179.13;10108999;28;20458;-75
2021/01/09 13:13:08;;;;;;;23.05;12.10;;;;;;;2.12;80.22;102170.38;10090870;28;20054;-76
2021/01/09 13:18:06;;;;;;;23.65;13.65;;;;;;;2.14;80.53;102174.50;10113983;28;20050;-75
2021/01/09 13:23:05;;;;;;;21.08;11.55;;;;;;;2.24;79.92;102180.16;10091901;28;20042;-76
2021/01/09 13:28:10;;;;;;;22.95;12.60;;;;;;;2.32;80.21;102176.31;10103348;28;20046;-76
2021/01/09 13:33:15;;;;;;;18.73;10.30;;;;;;;2.17;79.92;102195.63;10092527;28;20287;-74
2021/01/09 13:38:13;;;;;;;24.38;13.95;;;;;;;2.12;80.17;102190.06;10072403;28;20050;-75
2021/01/09 13:43:11;;;;;;;23.23;14.43;;;;;;;2.14;80.39;102185.28;10097907;28;20046;-75
2021/01/09 13:48:08;;;;;;;25.50;13.45;;;;;;;1.92;80.32;102189.47;10102306;28;20074;-75
2021/01/09 13:53:04;;;;;;;27.40;15.68;;;;;;;2.07;80.60;102189.94;10094243;28;20066;-76
2021/01/09 13:58:01;;;;;;;27.63;16.13;;;;;;;1.95;81.11;102191.69;10115092;28;20104;-75
2021/01/09 14:02:58;;;;;;;27.25;15.77;;;;;;;1.96;80.55;102196.88;10093643;28;20047;-74
2021/01/09 14:07:55;;;;;;;35.08;18.58;;;;;;;1.89;80.93;102188.84;10091175;28;20184;-74
2021/01/09 14:12:55;;;;;;;29.75;17.67;;;;;;;1.93;80.73;102199.19;10098932;28;20051;-72
2021/01/09 14:17:52;;;;;;;31.27;18.92;;;;;;;1.91;80.67;102191.34;10087029;28;20051;-73
2021/01/09 14:22:49;;;;;;;27.50;16.50;;;;;;;2.03;80.49;102210.31;10100034;28;20131;-73
2021/01/09 14:27:46;;;;;;;27.92;15.68;;;;;;;1.94;80.23;102206.25;10100254;28;20051;-73
2021/01/09 14:32:42;;;;;;;25.55;15.07;;;;;;;2.00;79.89;102197.28;10107032;28;20053;-74
2021/01/09 14:37:39;;;;;;;29.95;16.98;;;;;;;2.06;80.09;102204.44;10078786;28;20137;-73
2021/01/09 14:42:35;;;;;;;25.45;14.60;;;;;;;1.72;80.38;102198.59;10097354;28;20061;-76
2021/01/09 14:47:32;;;;;;;27.33;16.08;;;;;;;1.97;79.90;102192.31;10088660;28;20050;-76
2021/01/09 14:52:28;;;;;;;26.55;18.02;;;;;;;1.86;80.20;102204.69;10101467;28;20050;-73
2021/01/09 14:57:24;;;;;;;25.75;15.90;;;;;;;1.97;79.90;102205.78;10108302;28;20467;-74
2021/01/09 15:02:40;;;;;;;28.23;17.50;;;;;;;2.10;80.44;102216.44;10090037;28;20113;-74
2021/01/09 15:07:36;;;;;;;29.75;17.33;;;;;;;2.06;79.79;102215.25;10113800;28;20055;-74
2021/01/09 15:12:33;;;;;;;28.60;17.20;;;;;;;2.00;80.01;102216.16;10097675;28;20046;-74
2021/01/09 15:17:29;;;;;;;29.30;17.55;;;;;;;2.10;80.08;102219.16;10098265;28;20058;-75
2021/01/09 15:22:26;;;;;;;29.35;18.38;;;;;;;2.20;79.98;102215.91;10088871;28;20058;-74
2021/01/09 15:27:23;;;;;;;29.77;18.33;;;;;;;2.14;79.90;102223.06;10101771;28;20137;-73
2021/01/09 15:32:20;;;;;;;30.38;18.00;;;;;;;2.14;79.63;102223.06;10081693;28;20507;-75
2021/01/09 15:37:16;;;;;;;33.58;18.27;;;;;;;2.19;80.36;102236.69;10107673;28;20055;-74
2021/01/09 15:42:16;;;;;;;34.90;19.52;;;;;;;2.29;79.56;102242.38;10096639;28;20499;-74
2021/01/09 15:47:13;;;;;;;31.27;18.60;;;;;;;2.32;79.71;102246.50;10110240;28;20043;-74
2021/01/09 15:52:10;;;;;;;35.58;20.13;;;;;;;2.17;79.51;102238.78;10116295;28;20495;-75
2021/01/09 15:57:07;;;;;;;30.70;18.27;;;;;;;2.28;79.22;102245.31;10108323;28;20066;-74
2021/01/09 16:02:05;;;;;;;30.70;17.77;;;;;;;2.17;80.28;102238.78;10110588;28;20047;-74
2021/01/09 16:07:02;;;;;;;33.35;18.75;;;;;;;2.31;79.82;102240.28;10118706;28;20047;-73
2021/01/09 16:11:59;;;;;;;29.00;17.70;;;;;;;2.22;79.99;102244.34;10100003;28;20117;-73
2021/01/09 16:16:58;;;;;;;30.58;18.35;;;;;;;2.31;79.65;102251.09;10114881;28;20054;-74
2021/01/09 16:22:22;;;;;;;29.88;18.20;;;;;;;2.27;78.92;102249.88;10090995;28;20110;-74
2021/01/09 16:27:24;;;;;;;30.48;18.15;;;;;;;2.21;79.64;102261.59;10101714;28;20059;-76
2021/01/09 16:32:21;;;;;;;27.33;16.27;;;;;;;2.15;79.73;102257.06;10104906;28;20109;-75
2021/01/09 16:37:24;;;;;;;29.63;17.55;;;;;;;2.16;80.24;102264.13;10103077;28;20498;-76
2021/01/09 16:42:20;;;;;;;31.60;18.60;;;;;;;2.17;79.81;102267.66;10099617;28;20046;-76
2021/01/09 16:47:17;;;;;;;30.40;18.10;;;;;;;2.09;80.17;102274.19;10104367;28;20074;-75
2021/01/09 16:52:14;;;;;;;32.85;19.08;;;;;;;2.14;79.81;102282.41;10078356;28;20054;-75
2021/01/09 16:57:11;;;;;;;28.40;15.60;;;;;;;2.18;80.02;102278.25;10086279;28;20046;-76
2021/01/09 17:02:07;;;;;;;29.15;16.40;;;;;;;2.04;80.29;102282.94;10099420;28;20047;-75
2021/01/09 17:07:05;;;;;;;29.25;17.42;;;;;;;2.01;80.77;102287.94;10088690;28;20129;-75
2021/01/09 17:12:02;;;;;;;26.75;15.73;;;;;;;2.07;80.49;102292.47;10095961;28;20050;-75
2021/01/09 17:17:00;;;;;;;27.30;16.50;;;;;;;2.07;80.69;102298.66;10106930;28;20073;-76
2021/01/09 17:21:59;;;;;;;29.85;17.13;;;;;;;2.11;79.93;102293.63;10105632;28;20050;-76
2021/01/09 17:26:57;;;;;;;27.05;16.58;;;;;;;2.08;80.17;102294.09;10109507;28;20085;-77
2021/01/09 17:31:54;;;;;;;29.00;16.40;;;;;;;2.00;80.13;102302.50;10111066;28;20050;-76
2021/01/09 17:36:54;;;;;;;31.77;19.33;;;;;;;2.10;80.34;102310.91;10086938;28;20101;-76
2021/01/09 17:41:51;;;;;;;29.70;17.23;;;;;;;2.19;80.07;102311.44;10108266;28;20448;-75
2021/01/09 17:46:48;;;;;;;28.55;16.65;;;;;;;2.15;80.05;102321.84;10100887;28;20122;-75
2021/01/09 17:51:47;;;;;;;30.02;16.73;;;;;;;2.07;79.89;102319.44;10094799;28;20054;-74
2021/01/09 17:56:44;;;;;;;27.80;16.35;;;;;;;2.08;80.38;102321.06;10092257;28;20050;-73
2021/01/09 18:01:44;;;;;;;27.05;15.18;;;;;;;2.16;80.25;102318.09;10102869;28;20082;-76
2021/01/09 18:06:43;;;;;;;29.95;16.60;;;;;;;2.12;79.97;102327.69;10083087;28;20391;-73
2021/01/09 18:11:40;;;;;;;31.73;17.90;;;;;;;2.14;80.16;102320.19;10096282;28;20054;-75
2021/01/09 18:16:40;;;;;;;33.90;17.25;;;;;;;2.03;80.45;102331.72;10098456;28;20050;-74
2021/01/09 18:21:37;;;;;;;33.97;17.38;;;;;;;2.08;80.72;102326.47;10087020;28;20050;-76
2021/01/09 18:26:36;;;;;;;31.38;17.58;;;;;;;2.04;80.42;102330.66;10087629;28;20051;-75
2021/01/09 18:31:34;;;;;;;31.65;17.40;;;;;;;1.96;80.73;102328.25;10102397;28;20051;-76
2021/01/09 18:36:33;;;;;;;26.55;16.40;;;;;;;2.01;81.09;102331.09;10081796;28;20436;-76
2021/01/09 18:41:49;;;;;;;29.60;16.17;;;;;;;2.00;80.80;102340.25;10105953;28;20057;-74
2021/01/09 18:46:47;;;;;;;29.73;17.35;;;;;;;1.86;81.95;102328.75;10107419;28;20050;-76
2021/01/09 18:51:56;;;;;;;27.27;15.75;;;;;;;1.97;81.58;102324.50;10095306;28;20047;-73
2021/01/09 18:57:12;;;;;;;25.27;15.20;;;;;;;1.82;81.03;102333.75;10093054;28;20385;-73
2021/01/09 19:02:11;;;;;;;26.52;13.88;;;;;;;1.75;81.09;102332.97;10095269;28;20050;-74
2021/01/09 19:07:10;;;;;;;27.80;16.50;;;;;;;1.85;81.54;102330.59;10100221;28;20057;-74
2021/01/09 19:12:07;;;;;;;25.15;15.20;;;;;;;2.06;81.12;102328.56;10079200;28;20058;-74
2021/01/09 19:17:25;;;;;;;27.13;15.35;;;;;;;2.08;80.92;102342.66;10097990;28;20055;-75
2021/01/09 19:22:21;;;;;;;28.67;14.68;;;;;;;2.02;80.46;102338.13;10102672;28;20043;-74
2021/01/09 19:27:18;;;;;;;29.02;15.93;;;;;;;1.90;80.67;102340.72;10096525;28;20423;-74
2021/01/09 19:32:17;;;;;;;27.33;14.40;;;;;;;1.96;80.58;102334.47;10082554;28;20070;-73
2021/01/09 19:37:13;;;;;;;28.73;16.17;;;;;;;2.02;80.38;102339.00;10102647;28;20086;-74
2021/01/09 19:42:10;;;;;;;29.60;16.52;;;;;;;2.03;80.75;102342.50;10112296;28;20061;-74
2021/01/09 19:47:12;;;;;;;27.30;15.68;;;;;;;2.10;80.19;102337.88;10090861;28;20825;-74
2021/01/09 19:52:10;;;;;;;32.42;17.52;;;;;;;2.17;80.18;102330.53;10092250;28;20043;-72
2021/01/09 19:57:12;;;;;;;27.58;15.27;;;;;;;2.19;80.37;102338.44;10092277;28;20150;-73
2021/01/09 20:02:10;;;;;;;27.20;16.05;;;;;;;2.17;80.01;102335.94;10087900;28;20050;-72
2021/01/09 20:07:07;;;;;;;30.60;17.27;;;;;;;2.16;79.76;102334.31;10099025;28;20569;-73
2021/01/09 20:12:04;;;;;;;29.60;16.60;;;;;;;2.16;80.03;102339.69;10105319;28;20050;-73
2021/01/09 20:17:01;;;;;;;28.25;17.02;;;;;;;2.10;79.90;102346.78;10116272;28;20121;-72
2021/01/09 20:21:58;;;;;;;27.95;16.27;;;;;;;2.19;79.67;102347.34;10106142;28;20578;-73
2021/01/09 20:26:56;;;;;;;27.63;16.25;;;;;;;2.27;79.48;102349.75;10110597;28;20128;-73
2021/01/09 20:31:53;;;;;;;30.83;17.10;;;;;;;2.19;78.89;102355.44;10110492;28;20042;-73
2021/01/09 20:36:50;;;;;;;31.27;17.77;;;;;;;2.31;78.87;102353.66;10108057;28;20055;-72
2021/01/09 20:41:46;;;;;;;27.92;15.52;;;;;;;2.29;78.73;102350.34;10105191;28;20058;-72
2021/01/09 20:46:45;;;;;;;26.35;15.85;;;;;;;2.12;79.34;102354.69;10098983;28;20633;-73
2021/01/09 20:51:42;;;;;;;25.20;14.07;;;;;;;2.09;78.66;102360.53;10097450;28;20066;-73
2021/01/09 20:56:40;;;;;;;25.42;15.15;;;;;;;2.13;78.70;102353.63;10117073;28;20059;-74
2021/01/09 21:01:38;;;;;;;25.73;15.48;;;;;;;2.03;79.04;102356.00;10103500;28;20042;-74
2021/01/09 21:06:53;;;;;;;26.90;15.15;;;;;;;2.04;78.34;102350.38;10108949;28;20054;-75
2021/01/09 21:11:51;;;;;;;25.30;14.52;;;;;;;2.13;78.17;102350.09;10109028;28;20055;-74
2021/01/09 21:16:49;;;;;;;27.30;14.88;;;;;;;2.12;78.23;102353.84;10096785;28;20039;-74
2021/01/09 21:21:46;;;;;;;24.52;14.90;;;;;;;2.05;78.33;102343.13;10101768;28;20105;-74
2021/01/09 21:26:43;;;;;;;27.75;15.73;;;;;;;2.13;78.40;102350.91;10109281;28;20383;-73
2021/01/09 21:31:40;;;;;;;26.67;15.57;;;;;;;2.16;77.02;102344.25;10098569;28;20058;-75
2021/01/09 21:36:38;;;;;;;26.55;15.43;;;;;;;2.16;77.45;102355.88;10094197;28;20055;-74
2021/01/09 21:41:35;;;;;;;27.90;14.77;;;;;;;2.13;77.71;102350.91;10098727;28;20054;-75
2021/01/09 21:46:50;;;;;;;25.92;14.43;;;;;;;2.15;76.97;102354.22;10103526;28;20050;-74
2021/01/09 21:51:57;;;;;;;25.52;14.50;;;;;;;2.05;77.01;102353.91;10110470;28;20094;-74
2021/01/09 21:56:54;;;;;;;27.70;14.45;;;;;;;2.12;77.38;102360.06;10101876;28;20525;-75
2021/01/09 22:01:52;;;;;;;23.05;14.20;;;;;;;2.19;77.06;102360.84;10095613;28;20043;-75
2021/01/09 22:06:49;;;;;;;26.80;14.95;;;;;;;2.11;76.78;102358.41;10107579;28;20043;-73
2021/01/09 22:11:47;;;;;;;26.63;14.82;;;;;;;2.19;76.97;102355.44;10082321;28;20073;-74
2021/01/09 22:16:50;;;;;;;25.70;14.75;;;;;;;2.29;76.41;102355.75;10079531;28;20053;-76
2021/01/09 22:21:47;;;;;;;31.00;14.85;;;;;;;2.13;76.74;102367.09;10079291;28;20495;-77
2021/01/09 22:26:46;;;;;;;23.58;13.88;;;;;;;2.22;76.44;102363.09;10102801;28;20054;-77
2021/01/09 22:31:44;;;;;;;24.17;14.80;;;;;;;2.16;75.66;102355.88;10099547;28;20051;-77
2021/01/09 22:36:54;;;;;;;21.52;13.30;;;;;;;2.25;75.78;102351.88;10095166;28;20134;-78
2021/01/09 22:41:55;;;;;;;22.98;13.48;;;;;;;2.18;75.77;102342.16;10100037;28;20051;-78